createdAt,value
2019-02-10T00:00:22.463Z,69.20
2019-02-10T00:01:01.408Z,69.30
2019-02-10T00:01:53.839Z,69.20
2019-02-10T00:02:31.455Z,69.20
2019-02-10T00:03:08.617Z,69.90
2019-02-10T00:03:46.227Z,69.30
2019-02-10T00:04:24.518Z,69.40
2019-02-10T00:05:01.280Z,69.20
2019-02-10T00:05:38.994Z,69.20
2019-02-10T00:06:24.282Z,69.40
2019-02-10T00:06:54.960Z,69.40
2019-02-10T00:07:31.921Z,69.50
2019-02-10T00:08:08.640Z,69.50
2019-02-10T00:08:46.753Z,69.40
2019-02-10T00:09:24.342Z,69.40
2019-02-10T00:10:01.385Z,69.40
2019-02-10T00:10:37.529Z,69.50
2019-02-10T00:11:13.804Z,69.30
2019-02-10T00:11:51.703Z,69.20
2019-02-10T00:12:27.716Z,69.10
2019-02-10T00:13:30.018Z,69.20
2019-02-10T00:14:06.246Z,69.20
2019-02-10T00:14:42.271Z,69.10
2019-02-10T00:15:20.131Z,69.10
2019-02-10T00:15:56.361Z,69.20
2019-02-10T00:16:32.673Z,69.10
2019-02-10T00:17:11.393Z,69.10
2019-02-10T00:17:43.935Z,69.10
2019-02-10T00:18:21.686Z,69.10
2019-02-10T00:18:59.608Z,69.10
2019-02-10T00:19:36.545Z,69.10
2019-02-10T00:20:15.000Z,69.30
2019-02-10T00:20:52.070Z,69.20
2019-02-10T00:21:29.034Z,69.40
2019-02-10T00:22:08.984Z,69.40
2019-02-10T00:22:45.847Z,69.40
2019-02-10T00:23:23.286Z,69.50
2019-02-10T00:24:00.385Z,69.40
2019-02-10T00:24:36.420Z,69.40
2019-02-10T00:25:13.376Z,69.50
2019-02-10T00:25:50.343Z,69.50
2019-02-10T00:26:27.878Z,69.60
2019-02-10T00:27:04.420Z,69.60
2019-02-10T00:27:40.656Z,70.20
2019-02-10T00:28:18.640Z,69.50
2019-02-10T00:28:56.524Z,69.50
2019-02-10T00:29:32.860Z,69.60
2019-02-10T00:30:11.272Z,69.50
2019-02-10T00:30:49.159Z,69.70
2019-02-10T00:31:27.358Z,69.60
2019-02-10T00:32:04.205Z,69.40
2019-02-10T00:32:41.137Z,69.40
2019-02-10T00:33:19.046Z,69.60
2019-02-10T00:33:56.370Z,69.70
2019-02-10T00:34:35.410Z,69.70
2019-02-10T00:35:12.329Z,69.60
2019-02-10T00:35:50.693Z,69.60
2019-02-10T00:36:33.250Z,69.60
2019-02-10T00:37:09.943Z,69.60
2019-02-10T00:37:47.978Z,69.60
2019-02-10T00:38:24.263Z,69.50
2019-02-10T00:39:01.567Z,69.50
2019-02-10T00:39:37.792Z,69.60
2019-02-10T00:40:14.818Z,69.60
2019-02-10T00:40:51.794Z,69.60
2019-02-10T00:41:30.428Z,69.60
2019-02-10T00:42:08.132Z,69.70
2019-02-10T00:42:45.024Z,69.60
2019-02-10T00:43:23.602Z,69.70
2019-02-10T00:43:59.858Z,69.80
2019-02-10T00:44:37.059Z,69.90
2019-02-10T00:45:13.146Z,70.40
2019-02-10T00:45:51.406Z,70.00
2019-02-10T00:46:24.255Z,70.10
2019-02-10T00:47:03.799Z,70.10
2019-02-10T00:47:41.668Z,70.10
2019-02-10T00:48:19.650Z,70.20
2019-02-10T00:48:57.850Z,70.20
2019-02-10T00:49:34.052Z,70.10
2019-02-10T00:50:10.992Z,70.10
2019-02-10T00:50:48.246Z,70.20
2019-02-10T00:51:26.154Z,70.20
2019-02-10T00:52:02.137Z,70.20
2019-02-10T00:52:40.906Z,70.20
2019-02-10T00:53:18.544Z,70.20
2019-02-10T00:53:56.547Z,70.30
2019-02-10T00:54:34.418Z,70.40
2019-02-10T00:55:12.980Z,70.40
2019-02-10T00:55:50.199Z,70.50
2019-02-10T00:56:27.750Z,70.60
2019-02-10T00:57:04.539Z,70.60
2019-02-10T00:57:41.733Z,70.60
2019-02-10T00:58:19.323Z,70.60
2019-02-10T00:58:55.456Z,70.70
2019-02-10T00:59:34.099Z,70.60
2019-02-10T01:00:12.192Z,70.30
2019-02-10T01:00:50.010Z,70.80
2019-02-10T01:01:26.168Z,70.80
2019-02-10T01:02:03.701Z,70.90
2019-02-10T01:02:40.572Z,70.90
2019-02-10T01:03:19.560Z,70.90
2019-02-10T01:03:57.532Z,71.00
2019-02-10T01:04:35.498Z,70.90
2019-02-10T01:05:12.541Z,70.90
2019-02-10T01:05:49.715Z,70.90
2019-02-10T01:06:26.153Z,70.90
2019-02-10T01:07:02.473Z,70.80
2019-02-10T01:07:40.287Z,70.80
2019-02-10T01:08:17.728Z,70.70
2019-02-10T01:08:56.370Z,70.60
2019-02-10T01:09:33.475Z,70.70
2019-02-10T01:10:10.631Z,70.70
2019-02-10T01:10:48.288Z,70.60
2019-02-10T01:11:25.214Z,70.60
2019-02-10T01:12:03.273Z,70.60
2019-02-10T01:12:41.132Z,70.60
2019-02-10T01:13:18.414Z,70.50
2019-02-10T01:13:55.375Z,71.10
2019-02-10T01:14:33.367Z,70.70
2019-02-10T01:15:05.976Z,70.50
2019-02-10T01:15:43.925Z,70.40
2019-02-10T01:16:21.466Z,70.50
2019-02-10T01:16:59.360Z,70.50
2019-02-10T01:17:36.529Z,70.50
2019-02-10T01:18:15.326Z,70.60
2019-02-10T01:19:10.710Z,70.60
2019-02-10T01:19:48.540Z,70.60
2019-02-10T01:20:24.870Z,70.50
2019-02-10T01:21:02.593Z,70.50
2019-02-10T01:21:40.271Z,70.60
2019-02-10T01:22:16.518Z,70.50
2019-02-10T01:22:49.861Z,70.30
2019-02-10T01:23:27.900Z,70.30
2019-02-10T01:24:06.667Z,70.30
2019-02-10T01:24:44.977Z,70.40
2019-02-10T01:25:21.197Z,70.30
2019-02-10T01:25:58.015Z,70.40
2019-02-10T01:26:34.884Z,70.40
2019-02-10T01:27:11.961Z,70.40
2019-02-10T01:27:49.740Z,70.40
2019-02-10T01:28:28.855Z,70.40
2019-02-10T01:29:05.676Z,70.50
2019-02-10T01:29:43.323Z,70.50
2019-02-10T01:30:53.337Z,70.60
2019-02-10T01:31:29.960Z,70.50
2019-02-10T01:32:07.474Z,70.60
2019-02-10T01:32:45.445Z,70.60
2019-02-10T01:33:23.603Z,70.70
2019-02-10T01:34:00.418Z,70.70
2019-02-10T01:34:37.746Z,70.60
2019-02-10T01:35:15.507Z,70.80
2019-02-10T01:35:54.393Z,70.70
2019-02-10T01:36:32.130Z,70.80
2019-02-10T01:37:10.429Z,70.80
2019-02-10T01:37:47.642Z,70.90
2019-02-10T01:38:25.949Z,70.80
2019-02-10T01:39:05.149Z,70.90
2019-02-10T01:39:42.623Z,71.00
2019-02-10T01:40:19.203Z,71.00
2019-02-10T01:40:57.755Z,70.90
2019-02-10T01:41:34.968Z,71.00
2019-02-10T01:42:13.154Z,71.00
2019-02-10T01:42:51.682Z,71.00
2019-02-10T01:43:28.943Z,71.10
2019-02-10T01:44:06.422Z,71.20
2019-02-10T01:44:44.316Z,71.30
2019-02-10T01:45:21.144Z,71.40
2019-02-10T01:45:57.191Z,71.50
2019-02-10T01:46:34.438Z,71.50
2019-02-10T01:47:11.772Z,71.50
2019-02-10T01:47:51.285Z,71.50
2019-02-10T01:48:29.720Z,71.60
2019-02-10T01:49:06.292Z,71.60
2019-02-10T01:49:45.133Z,71.70
2019-02-10T01:50:22.780Z,71.80
2019-02-10T01:51:00.241Z,71.80
2019-02-10T01:51:32.775Z,71.70
2019-02-10T01:52:10.058Z,71.90
2019-02-10T01:52:48.112Z,71.80
2019-02-10T01:53:27.423Z,71.80
2019-02-10T01:54:04.588Z,71.80
2019-02-10T01:54:42.495Z,71.70
2019-02-10T01:55:19.500Z,71.80
2019-02-10T01:55:56.960Z,71.80
2019-02-10T01:56:34.212Z,71.90
2019-02-10T01:57:09.549Z,71.80
2019-02-10T01:57:48.350Z,71.70
2019-02-10T01:58:25.602Z,72.20
2019-02-10T01:59:02.737Z,71.50
2019-02-10T01:59:39.982Z,71.50
2019-02-10T02:00:17.321Z,71.60
2019-02-10T02:00:56.145Z,71.80
2019-02-10T02:01:35.344Z,71.80
2019-02-10T02:02:14.287Z,71.70
2019-02-10T02:02:52.707Z,71.80
2019-02-10T02:03:29.962Z,71.80
2019-02-10T02:04:07.851Z,71.90
2019-02-10T02:04:46.194Z,72.00
2019-02-10T02:05:23.315Z,72.10
2019-02-10T02:06:02.780Z,72.10
2019-02-10T02:06:40.047Z,72.10
2019-02-10T02:07:17.244Z,72.20
2019-02-10T02:07:54.496Z,72.20
2019-02-10T02:08:31.662Z,72.20
2019-02-10T02:09:11.476Z,72.20
2019-02-10T02:09:48.932Z,72.20
2019-02-10T02:10:26.096Z,72.30
2019-02-10T02:11:04.443Z,72.40
2019-02-10T02:11:41.847Z,72.40
2019-02-10T02:12:19.133Z,72.20
2019-02-10T02:12:57.971Z,72.40
2019-02-10T02:13:36.451Z,72.30
2019-02-10T02:14:13.746Z,72.30
2019-02-10T02:14:50.924Z,72.40
2019-02-10T02:15:27.262Z,72.40
2019-02-10T02:16:05.356Z,72.40
2019-02-10T02:16:44.054Z,72.50
2019-02-10T02:17:21.182Z,72.50
2019-02-10T02:18:00.363Z,72.50
2019-02-10T02:18:38.240Z,72.50
2019-02-10T02:19:14.653Z,72.50
2019-02-10T02:19:51.964Z,72.50
2019-02-10T02:20:28.777Z,72.60
2019-02-10T02:21:06.999Z,72.50
2019-02-10T02:21:44.414Z,72.50
2019-02-10T02:22:21.780Z,72.60
2019-02-10T02:22:58.160Z,72.50
2019-02-10T02:23:36.795Z,72.40
2019-02-10T02:24:14.107Z,72.50
2019-02-10T02:24:46.655Z,72.80
2019-02-10T02:25:24.798Z,72.50
2019-02-10T02:26:02.948Z,72.50
2019-02-10T02:26:40.233Z,72.50
2019-02-10T02:27:17.359Z,72.50
2019-02-10T02:27:54.513Z,72.50
2019-02-10T02:28:32.931Z,73.10
2019-02-10T02:29:10.771Z,72.40
2019-02-10T02:29:48.710Z,72.50
2019-02-10T02:30:25.893Z,72.40
2019-02-10T02:31:03.013Z,72.60
2019-02-10T02:31:40.896Z,72.70
2019-02-10T02:32:19.831Z,72.60
2019-02-10T02:32:57.077Z,72.50
2019-02-10T02:33:34.033Z,72.50
2019-02-10T02:34:12.755Z,72.50
2019-02-10T02:34:50.147Z,72.50
2019-02-10T02:35:29.919Z,72.50
2019-02-10T02:36:04.378Z,72.60
2019-02-10T02:36:45.540Z,72.50
2019-02-10T02:37:23.010Z,72.60
2019-02-10T02:38:00.138Z,72.70
2019-02-10T02:38:38.178Z,72.70
2019-02-10T02:39:15.790Z,72.70
2019-02-10T02:39:53.191Z,72.80
2019-02-10T02:40:31.231Z,72.90
2019-02-10T02:41:08.784Z,72.90
2019-02-10T02:41:47.644Z,72.80
2019-02-10T02:42:26.335Z,72.80
2019-02-10T02:43:03.539Z,72.80
2019-02-10T02:43:40.723Z,72.80
2019-02-10T02:44:17.086Z,72.90
2019-02-10T02:44:54.447Z,72.90
2019-02-10T02:45:31.530Z,72.90
2019-02-10T02:46:08.649Z,73.10
2019-02-10T02:46:46.556Z,72.90
2019-02-10T02:47:24.523Z,72.90
2019-02-10T02:48:01.792Z,72.90
2019-02-10T02:48:39.434Z,72.90
2019-02-10T02:49:19.102Z,72.90
2019-02-10T02:49:57.738Z,72.80
2019-02-10T02:50:35.660Z,72.90
2019-02-10T02:51:13.955Z,72.90
2019-02-10T02:51:51.346Z,73.00
2019-02-10T02:52:28.814Z,73.00
2019-02-10T02:53:07.693Z,73.00
2019-02-10T02:53:45.026Z,73.10
2019-02-10T02:54:24.505Z,73.10
2019-02-10T02:55:02.973Z,73.10
2019-02-10T02:55:40.558Z,73.20
2019-02-10T02:56:17.315Z,73.10
2019-02-10T02:56:54.485Z,73.10
2019-02-10T02:57:32.612Z,73.10
2019-02-10T02:58:09.729Z,73.20
2019-02-10T02:58:46.623Z,73.10
2019-02-10T02:59:25.022Z,73.10
2019-02-10T03:00:02.734Z,73.20
2019-02-10T03:00:41.621Z,73.10
2019-02-10T03:01:20.069Z,73.20
2019-02-10T03:01:58.196Z,73.10
2019-02-10T03:02:35.487Z,73.20
2019-02-10T03:03:12.091Z,73.10
2019-02-10T03:03:51.772Z,73.30
2019-02-10T03:04:29.732Z,73.30
2019-02-10T03:05:06.212Z,73.30
2019-02-10T03:05:43.536Z,73.30
2019-02-10T03:06:19.797Z,73.30
2019-02-10T03:06:57.155Z,73.40
2019-02-10T03:07:35.064Z,73.40
2019-02-10T03:08:12.958Z,73.40
2019-02-10T03:08:53.244Z,73.50
2019-02-10T03:09:30.317Z,73.60
2019-02-10T03:10:08.831Z,73.50
2019-02-10T03:10:41.808Z,73.50
2019-02-10T03:11:18.865Z,73.60
2019-02-10T03:11:55.772Z,73.50
2019-02-10T03:12:32.657Z,73.60
2019-02-10T03:13:10.547Z,74.20
2019-02-10T03:13:49.053Z,73.70
2019-02-10T03:14:26.341Z,73.80
2019-02-10T03:15:05.501Z,73.90
2019-02-10T03:15:44.327Z,73.90
2019-02-10T03:16:23.932Z,73.90
2019-02-10T03:17:03.280Z,73.80
2019-02-10T03:17:40.573Z,73.90
2019-02-10T03:18:18.786Z,73.90
2019-02-10T03:18:57.537Z,74.00
2019-02-10T03:19:34.963Z,74.00
2019-02-10T03:20:12.192Z,74.10
2019-02-10T03:20:50.209Z,74.00
2019-02-10T03:21:27.812Z,74.10
2019-02-10T03:22:06.027Z,74.10
2019-02-10T03:22:44.190Z,74.20
2019-02-10T03:23:22.230Z,74.30
2019-02-10T03:24:01.309Z,74.20
2019-02-10T03:24:40.643Z,74.40
2019-02-10T03:25:19.665Z,74.20
2019-02-10T03:25:57.239Z,74.30
2019-02-10T03:26:33.685Z,74.40
2019-02-10T03:27:11.683Z,74.40
2019-02-10T03:27:50.391Z,74.50
2019-02-10T03:28:28.487Z,74.50
2019-02-10T03:29:06.854Z,74.50
2019-02-10T03:29:45.542Z,74.50
2019-02-10T03:30:24.297Z,74.50
2019-02-10T03:31:01.667Z,74.60
2019-02-10T03:31:39.467Z,74.70
2019-02-10T03:32:16.123Z,74.70
2019-02-10T03:32:54.243Z,74.70
2019-02-10T03:33:31.607Z,74.80
2019-02-10T03:34:08.901Z,74.90
2019-02-10T03:34:45.223Z,74.80
2019-02-10T03:35:23.957Z,74.80
2019-02-10T03:36:01.720Z,74.90
2019-02-10T03:36:39.581Z,74.90
2019-02-10T03:37:16.847Z,74.90
2019-02-10T03:37:55.775Z,74.90
2019-02-10T03:38:33.143Z,75.00
2019-02-10T03:39:10.792Z,75.00
2019-02-10T03:39:49.557Z,75.10
2019-02-10T03:40:28.087Z,75.20
2019-02-10T03:41:06.355Z,75.30
2019-02-10T03:41:43.615Z,75.30
2019-02-10T03:42:21.979Z,75.40
2019-02-10T03:43:01.450Z,75.50
2019-02-10T03:43:39.392Z,75.50
2019-02-10T03:44:15.724Z,75.60
2019-02-10T03:44:53.635Z,75.60
2019-02-10T03:45:30.082Z,75.60
2019-02-10T03:46:09.912Z,75.50
2019-02-10T03:46:48.989Z,75.60
2019-02-10T03:47:26.495Z,75.60
2019-02-10T03:48:03.672Z,75.50
2019-02-10T03:48:41.594Z,75.50
2019-02-10T03:49:22.175Z,75.50
2019-02-10T03:49:54.735Z,75.70
2019-02-10T03:50:32.386Z,75.50
2019-02-10T03:51:09.524Z,75.60
2019-02-10T03:51:47.862Z,76.20
2019-02-10T03:52:27.456Z,75.80
2019-02-10T03:53:04.916Z,75.60
2019-02-10T03:53:43.508Z,75.70
2019-02-10T03:54:21.528Z,75.80
2019-02-10T03:54:58.371Z,75.80
2019-02-10T03:55:31.850Z,75.80
2019-02-10T03:56:08.955Z,75.80
2019-02-10T03:56:47.533Z,75.80
2019-02-10T03:57:24.170Z,75.80
2019-02-10T03:58:01.467Z,75.90
2019-02-10T03:58:39.356Z,75.80
2019-02-10T03:59:16.453Z,76.00
2019-02-10T03:59:54.431Z,76.10
2019-02-10T04:00:31.233Z,76.30
2019-02-10T04:01:09.531Z,76.30
2019-02-10T04:01:47.102Z,76.40
2019-02-10T04:02:25.239Z,76.50
2019-02-10T04:03:01.801Z,76.50
2019-02-10T04:03:39.089Z,76.60
2019-02-10T04:04:18.180Z,76.60
2019-02-10T04:04:56.978Z,76.50
2019-02-10T04:05:34.438Z,76.60
2019-02-10T04:06:13.000Z,76.60
2019-02-10T04:06:51.308Z,76.70
2019-02-10T04:07:35.846Z,76.90
2019-02-10T04:08:09.454Z,77.10
2019-02-10T04:08:48.225Z,77.10
2019-02-10T04:09:26.817Z,77.10
2019-02-10T04:10:05.870Z,77.20
2019-02-10T04:10:44.387Z,77.20
2019-02-10T04:11:23.993Z,77.20
2019-02-10T04:12:01.135Z,77.20
2019-02-10T04:12:38.682Z,77.30
2019-02-10T04:13:15.544Z,77.40
2019-02-10T04:13:52.878Z,77.20
2019-02-10T04:14:29.477Z,77.20
2019-02-10T04:15:07.486Z,77.30
2019-02-10T04:15:46.955Z,77.20
2019-02-10T04:16:23.556Z,77.00
2019-02-10T04:17:01.631Z,77.10
2019-02-10T04:17:39.929Z,77.20
2019-02-10T04:18:19.306Z,77.20
2019-02-10T04:18:56.394Z,77.70
2019-02-10T04:19:33.697Z,77.30
2019-02-10T04:20:12.056Z,77.30
2019-02-10T04:20:50.200Z,77.30
2019-02-10T04:21:29.244Z,77.40
2019-02-10T04:22:08.758Z,77.40
2019-02-10T04:22:45.876Z,77.50
2019-02-10T04:23:22.904Z,77.50
2019-02-10T04:24:00.046Z,77.40
2019-02-10T04:24:38.299Z,77.30
2019-02-10T04:25:15.139Z,77.40
2019-02-10T04:25:51.635Z,77.60
2019-02-10T04:26:30.685Z,77.70
2019-02-10T04:27:07.990Z,77.60
2019-02-10T04:27:46.216Z,77.70
2019-02-10T04:28:22.894Z,77.90
2019-02-10T04:29:00.241Z,77.90
2019-02-10T04:29:38.482Z,78.10
2019-02-10T04:30:16.480Z,78.20
2019-02-10T04:30:55.644Z,77.90
2019-02-10T04:31:34.488Z,78.40
2019-02-10T04:32:11.868Z,78.60
2019-02-10T04:32:50.836Z,78.50
2019-02-10T04:33:29.827Z,78.50
2019-02-10T04:34:08.244Z,78.50
2019-02-10T04:34:47.188Z,78.50
2019-02-10T04:35:25.037Z,78.40
2019-02-10T04:36:02.512Z,78.50
2019-02-10T04:36:39.793Z,78.60
2019-02-10T04:37:18.547Z,79.10
2019-02-10T04:37:56.855Z,78.70
2019-02-10T04:38:34.770Z,78.80
2019-02-10T04:39:13.536Z,78.80
2019-02-10T04:39:51.585Z,78.80
2019-02-10T04:40:29.104Z,78.80
2019-02-10T04:41:06.257Z,78.80
2019-02-10T04:41:43.673Z,78.70
2019-02-10T04:42:20.747Z,78.80
2019-02-10T04:42:57.532Z,78.60
2019-02-10T04:43:37.963Z,78.60
2019-02-10T04:44:14.404Z,78.60
2019-02-10T04:44:53.659Z,78.60
2019-02-10T04:45:30.180Z,78.60
2019-02-10T04:46:06.787Z,78.70
2019-02-10T04:46:46.306Z,78.60
2019-02-10T04:47:20.122Z,78.60
2019-02-10T04:47:58.924Z,78.60
2019-02-10T04:48:37.203Z,78.60
2019-02-10T04:49:13.716Z,78.80
2019-02-10T04:49:51.956Z,78.90
2019-02-10T04:50:30.112Z,78.80
2019-02-10T04:51:08.120Z,78.90
2019-02-10T04:51:46.264Z,78.90
2019-02-10T04:52:23.702Z,79.00
2019-02-10T04:52:56.258Z,79.10
2019-02-10T04:53:32.871Z,79.20
2019-02-10T04:54:11.229Z,79.30
2019-02-10T04:54:48.517Z,79.20
2019-02-10T04:55:25.834Z,79.20
2019-02-10T04:56:17.080Z,79.30
2019-02-10T04:56:56.316Z,79.20
2019-02-10T04:57:33.567Z,79.40
2019-02-10T04:58:13.187Z,79.20
2019-02-10T04:58:46.086Z,79.20
2019-02-10T04:59:23.923Z,79.20
2019-02-10T05:00:03.898Z,79.10
2019-02-10T05:00:42.587Z,79.20
2019-02-10T05:01:20.277Z,79.30
2019-02-10T05:01:57.782Z,79.20
2019-02-10T05:02:35.421Z,79.20
2019-02-10T05:03:13.693Z,79.20
2019-02-10T05:03:52.857Z,79.00
2019-02-10T05:04:25.772Z,79.00
2019-02-10T05:05:02.813Z,79.00
2019-02-10T05:05:41.179Z,79.10
2019-02-10T05:06:19.090Z,79.20
2019-02-10T05:06:57.776Z,79.10
2019-02-10T05:07:35.615Z,79.10
2019-02-10T05:08:13.378Z,79.20
2019-02-10T05:08:52.113Z,79.30
2019-02-10T05:09:29.973Z,79.40
2019-02-10T05:10:04.806Z,79.50
2019-02-10T05:10:43.996Z,79.40
2019-02-10T05:11:22.368Z,79.40
2019-02-10T05:12:00.641Z,79.50
2019-02-10T05:12:39.769Z,79.30
2019-02-10T05:13:17.323Z,79.30
2019-02-10T05:13:56.737Z,79.20
2019-02-10T05:14:35.075Z,79.20
2019-02-10T05:15:12.975Z,79.30
2019-02-10T05:15:48.454Z,79.30
2019-02-10T05:16:27.330Z,79.20
2019-02-10T05:17:03.978Z,79.20
2019-02-10T05:17:40.643Z,79.30
2019-02-10T05:18:19.929Z,79.30
2019-02-10T05:18:57.362Z,79.30
2019-02-10T05:19:35.898Z,79.60
2019-02-10T05:20:14.815Z,79.60
2019-02-10T05:20:53.032Z,79.50
2019-02-10T05:21:31.498Z,79.50
2019-02-10T05:22:08.119Z,79.50
2019-02-10T05:22:45.558Z,79.60
2019-02-10T05:23:24.514Z,79.50
2019-02-10T05:24:03.443Z,79.60
2019-02-10T05:24:41.334Z,79.60
2019-02-10T05:25:18.674Z,79.70
2019-02-10T05:25:58.300Z,79.90
2019-02-10T05:26:38.411Z,79.80
2019-02-10T05:27:15.522Z,79.70
2019-02-10T05:27:52.727Z,79.80
2019-02-10T05:28:30.906Z,79.70
2019-02-10T05:29:07.463Z,79.70
2019-02-10T05:29:45.668Z,79.70
2019-02-10T05:30:23.735Z,79.70
2019-02-10T05:31:03.600Z,79.70
2019-02-10T05:31:41.818Z,79.70
2019-02-10T05:32:19.767Z,79.80
2019-02-10T05:32:58.123Z,79.80
2019-02-10T05:33:36.819Z,80.40
2019-02-10T05:34:14.168Z,79.80
2019-02-10T05:34:52.207Z,79.80
2019-02-10T05:35:31.071Z,79.80
2019-02-10T05:36:09.440Z,80.00
2019-02-10T05:36:46.642Z,80.00
2019-02-10T05:37:24.020Z,80.10
2019-02-10T05:38:04.539Z,80.20
2019-02-10T05:38:41.697Z,80.20
2019-02-10T05:39:21.533Z,80.20
2019-02-10T05:39:58.736Z,80.30
2019-02-10T05:40:35.948Z,80.40
2019-02-10T05:41:14.454Z,80.60
2019-02-10T05:41:52.662Z,80.40
2019-02-10T05:42:31.416Z,80.50
2019-02-10T05:43:10.111Z,80.50
2019-02-10T05:43:50.171Z,80.60
2019-02-10T05:44:29.681Z,80.50
2019-02-10T05:45:07.881Z,80.50
2019-02-10T05:45:46.401Z,80.40
2019-02-10T05:46:24.834Z,81.10
2019-02-10T05:47:01.720Z,80.70
2019-02-10T05:47:39.181Z,80.60
2019-02-10T05:48:17.596Z,80.60
2019-02-10T05:48:54.076Z,80.60
2019-02-10T05:49:32.056Z,80.70
2019-02-10T05:50:09.683Z,80.80
2019-02-10T05:50:48.379Z,80.90
2019-02-10T05:51:26.440Z,80.70
2019-02-10T05:52:04.788Z,80.70
2019-02-10T05:52:41.923Z,80.70
2019-02-10T05:53:19.030Z,80.60
2019-02-10T05:53:56.213Z,81.10
2019-02-10T05:54:34.163Z,80.50
2019-02-10T05:55:11.515Z,80.50
2019-02-10T05:55:49.470Z,80.40
2019-02-10T05:56:26.052Z,80.60
2019-02-10T05:57:03.738Z,80.60
2019-02-10T05:57:41.365Z,80.50
2019-02-10T05:58:22.268Z,80.70
2019-02-10T05:58:58.714Z,80.60
2019-02-10T05:59:38.015Z,80.80
2019-02-10T06:00:16.478Z,80.80
2019-02-10T06:00:54.839Z,80.60
2019-02-10T06:02:07.200Z,80.70
2019-02-10T06:02:44.829Z,80.70
2019-02-10T06:03:21.702Z,80.90
2019-02-10T06:03:58.211Z,80.90
2019-02-10T06:04:37.663Z,81.00
2019-02-10T06:05:22.103Z,80.90
2019-02-10T06:06:00.673Z,81.00
2019-02-10T06:06:37.849Z,81.00
2019-02-10T06:07:16.772Z,81.30
2019-02-10T06:07:55.261Z,81.20
2019-02-10T06:08:33.202Z,81.30
2019-02-10T06:09:10.799Z,81.30
2019-02-10T06:09:50.287Z,81.80
2019-02-10T06:10:28.560Z,81.20
2019-02-10T06:11:06.679Z,81.20
2019-02-10T06:11:45.015Z,81.10
2019-02-10T06:12:23.389Z,81.20
2019-02-10T06:13:01.203Z,81.40
2019-02-10T06:13:37.808Z,81.40
2019-02-10T06:14:17.119Z,81.60
2019-02-10T06:14:56.329Z,81.40
2019-02-10T06:15:33.470Z,81.50
2019-02-10T06:16:12.163Z,81.60
2019-02-10T06:16:50.043Z,81.80
2019-02-10T06:17:27.835Z,81.70
2019-02-10T06:18:04.611Z,81.50
2019-02-10T06:18:43.074Z,81.60
2019-02-10T06:19:20.306Z,81.90
2019-02-10T06:19:57.747Z,81.50
2019-02-10T06:20:36.468Z,81.40
2019-02-10T06:21:15.684Z,81.50
2019-02-10T06:21:53.810Z,81.40
2019-02-10T06:22:32.865Z,81.50
2019-02-10T06:23:12.297Z,81.40
2019-02-10T06:23:50.108Z,81.30
2019-02-10T06:24:28.777Z,81.30
2019-02-10T06:25:08.002Z,81.70
2019-02-10T06:25:45.113Z,81.40
2019-02-10T06:26:24.728Z,81.30
2019-02-10T06:27:04.205Z,81.30
2019-02-10T06:27:42.846Z,81.80
2019-02-10T06:28:19.234Z,81.20
2019-02-10T06:28:59.008Z,81.20
2019-02-10T06:29:36.362Z,81.30
2019-02-10T06:30:14.421Z,81.40
2019-02-10T06:30:51.731Z,81.30
2019-02-10T06:31:31.678Z,81.00
2019-02-10T06:32:11.185Z,80.90
2019-02-10T06:32:49.490Z,81.10
2019-02-10T06:33:27.462Z,81.10
2019-02-10T06:34:05.236Z,81.00
2019-02-10T06:34:44.339Z,81.10
2019-02-10T06:35:23.030Z,81.10
2019-02-10T06:36:01.245Z,81.10
2019-02-10T06:36:38.054Z,81.10
2019-02-10T06:37:17.371Z,81.10
2019-02-10T06:37:57.267Z,81.10
2019-02-10T06:38:34.621Z,81.20
2019-02-10T06:39:12.077Z,81.40
2019-02-10T06:39:48.730Z,81.20
2019-02-10T06:40:27.384Z,81.10
2019-02-10T06:41:07.384Z,81.10
2019-02-10T06:41:44.644Z,81.10
2019-02-10T06:42:22.698Z,81.00
2019-02-10T06:43:01.236Z,81.10
2019-02-10T06:43:38.786Z,81.20
2019-02-10T06:44:16.304Z,81.30
2019-02-10T06:44:54.728Z,81.50
2019-02-10T06:45:31.478Z,81.50
2019-02-10T06:46:08.640Z,81.60
2019-02-10T06:46:45.059Z,81.60
2019-02-10T06:47:23.016Z,81.60
2019-02-10T06:48:01.865Z,81.50
2019-02-10T06:48:39.014Z,81.30
2019-02-10T06:49:12.213Z,81.30
2019-02-10T06:49:51.283Z,81.30
2019-02-10T06:50:29.046Z,81.20
2019-02-10T06:51:05.778Z,81.30
2019-02-10T06:51:41.142Z,81.20
2019-02-10T06:52:14.039Z,81.00
2019-02-10T06:52:52.030Z,81.20
2019-02-10T06:53:31.127Z,81.50
2019-02-10T06:54:04.716Z,80.70
2019-02-10T06:54:44.618Z,80.80
2019-02-10T06:55:22.515Z,80.90
2019-02-10T06:56:00.570Z,80.90
2019-02-10T06:56:39.074Z,81.00
2019-02-10T06:57:11.830Z,81.10
2019-02-10T06:57:48.828Z,81.20
2019-02-10T06:58:26.993Z,81.10
2019-02-10T06:59:05.473Z,81.10
2019-02-10T06:59:50.346Z,81.20
2019-02-10T07:00:46.840Z,81.30
2019-02-10T07:01:33.613Z,81.30
2019-02-10T07:02:30.976Z,81.20
2019-02-10T07:03:42.367Z,81.20
2019-02-10T07:04:22.965Z,81.10
2019-02-10T07:04:55.876Z,81.10
2019-02-10T07:05:30.467Z,80.90
2019-02-10T07:06:05.821Z,80.90
2019-02-10T07:06:42.257Z,81.50
2019-02-10T07:07:18.547Z,81.00
2019-02-10T07:07:55.424Z,81.10
2019-02-10T07:08:31.496Z,81.10
2019-02-10T07:09:08.810Z,81.20
2019-02-10T07:09:45.886Z,81.20
2019-02-10T07:10:22.400Z,81.20
2019-02-10T07:10:59.039Z,81.20
2019-02-10T07:11:35.810Z,81.10
2019-02-10T07:12:50.144Z,81.10
2019-02-10T07:13:34.835Z,81.00
2019-02-10T07:14:24.966Z,80.90
2019-02-10T07:15:06.927Z,80.90
2019-02-10T07:16:18.674Z,81.00
2019-02-10T07:17:32.959Z,80.90
2019-02-10T07:18:44.162Z,80.80
2019-02-10T07:19:57.685Z,80.80
2019-02-10T07:20:54.770Z,80.70
2019-02-10T07:21:39.802Z,80.60
2019-02-10T07:23:02.992Z,80.50
2019-02-10T07:24:19.444Z,80.50
2019-02-10T07:25:21.667Z,80.40
2019-02-10T07:26:19.658Z,80.30
2019-02-10T07:27:02.248Z,80.20
2019-02-10T07:27:39.483Z,80.10
2019-02-10T07:28:42.457Z,80.10
2019-02-10T07:29:53.229Z,80.20
2019-02-10T07:30:50.152Z,80.30
2019-02-10T07:31:55.160Z,80.30
2019-02-10T07:32:39.931Z,80.50
2019-02-10T07:33:28.759Z,80.10
2019-02-10T07:34:59.429Z,80.00
2019-02-10T07:36:22.608Z,79.70
2019-02-10T07:37:14.328Z,79.50
2019-02-10T07:38:38.668Z,79.20
2019-02-10T07:39:48.501Z,79.10
2019-02-10T07:41:05.098Z,79.10
2019-02-10T07:41:59.491Z,79.00
2019-02-10T07:43:30.452Z,79.20
2019-02-10T07:45:12.156Z,79.00
2019-02-10T07:46:31.216Z,78.90
2019-02-10T07:47:52.799Z,78.70
2019-02-10T07:49:24.288Z,78.70
2019-02-10T07:50:40.051Z,78.50
2019-02-10T07:51:40.873Z,78.50
2019-02-10T07:53:00.667Z,78.50
2019-02-10T07:54:27.165Z,78.60
2019-02-10T07:55:43.828Z,78.30
2019-02-10T07:56:52.189Z,78.30
2019-02-10T07:57:49.033Z,78.10
2019-02-10T07:58:50.419Z,78.00
2019-02-10T08:00:06.787Z,78.10
2019-02-10T08:01:17.811Z,78.30
2019-02-10T08:02:28.377Z,78.60
2019-02-10T08:03:39.442Z,78.40
2019-02-10T08:04:41.726Z,78.20
2019-02-10T08:05:45.866Z,78.40
2019-02-10T08:06:54.162Z,78.20
2019-02-10T08:08:12.453Z,78.00
2019-02-10T08:09:06.218Z,78.20
2019-02-10T08:10:36.371Z,78.60
2019-02-10T08:11:42.151Z,78.10
2019-02-10T08:12:31.015Z,77.70
2019-02-10T08:13:57.605Z,77.60
2019-02-10T08:15:07.431Z,77.50
2019-02-10T08:16:18.602Z,77.70
2019-02-10T08:17:09.370Z,78.00
2019-02-10T08:18:06.592Z,77.90
2019-02-10T08:19:37.824Z,78.30
2019-02-10T08:20:26.215Z,77.80
2019-02-10T08:21:49.505Z,77.50
2019-02-10T08:23:29.519Z,77.50
2019-02-10T08:25:00.973Z,77.60
2019-02-10T08:26:03.983Z,77.80
2019-02-10T08:27:34.993Z,77.80
2019-02-10T08:28:48.380Z,77.50
2019-02-10T08:29:56.961Z,77.40
2019-02-10T08:31:07.552Z,77.10
2019-02-10T08:32:10.090Z,77.00
2019-02-10T08:33:33.231Z,76.60
2019-02-10T08:34:28.654Z,76.60
2019-02-10T08:35:47.320Z,76.70
2019-02-10T08:36:46.426Z,76.70
2019-02-10T08:37:53.525Z,76.40
2019-02-10T08:39:15.445Z,76.60
2019-02-10T08:40:18.990Z,76.20
2019-02-10T08:41:25.315Z,76.10
2019-02-10T08:42:26.442Z,75.90
2019-02-10T08:43:46.886Z,75.90
2019-02-10T08:44:50.775Z,75.90
2019-02-10T08:45:57.042Z,76.10
2019-02-10T08:46:54.929Z,76.30
2019-02-10T08:47:55.047Z,76.30
2019-02-10T08:48:54.956Z,76.50
2019-02-10T08:50:06.644Z,76.50
2019-02-10T08:51:21.334Z,76.40
2019-02-10T08:52:18.279Z,76.10
2019-02-10T08:53:03.718Z,76.00
2019-02-10T08:53:39.740Z,76.10
2019-02-10T08:54:12.748Z,76.30
2019-02-10T08:54:45.486Z,76.10